| time (UTC) | temp C | wind direction | speed KPH | gust KPH | rain 1hr cm | rain 24hr cm | rain mn cm | humidity % | barometer mb |
| 20260507110307 | 11 | 331 | 9.7 | 24.1 | 0.00 | 0.36 | 0.36 | 87 | 1009.9 |
| 20260507105807 | 11 | 355 | 14.5 | 24.1 | 0.00 | 0.36 | 0.36 | 87 | 1009.9 |
| 20260507105307 | 11 | 351 | 9.7 | 22.5 | 0.00 | 0.36 | 0.36 | 88 | 1009.9 |
| 20260507104807 | 11 | 330 | 8.0 | 16.1 | 0.00 | 0.36 | 0.36 | 88 | 1009.9 |
| 20260507104308 | 11 | 4 | 9.7 | 19.3 | 0.00 | 0.36 | 0.36 | 87 | 1009.9 |
| 20260507102806 | 11 | 315 | 11.3 | 19.3 | 0.00 | 0.36 | 0.36 | 88 | 1009.7 |
| 20260507102307 | 11 | 343 | 9.7 | 19.3 | 0.00 | 0.36 | 0.36 | 88 | 1009.5 |
| 20260507101806 | 11 | 337 | 9.7 | 19.3 | 0.00 | 0.36 | 0.36 | 88 | 1009.3 |
| 20260507100307 | 11 | 341 | 8.0 | 19.3 | 0.00 | 0.36 | 0.36 | 89 | 1009.3 |
| 20260507095306 | 11 | 350 | 9.7 | 20.9 | 0.00 | 0.36 | 0.36 | 89 | 1009.0 |
| 20260507094306 | 11 | 337 | 8.0 | 19.3 | 0.00 | 0.36 | 0.36 | 89 | 1008.9 |
| 20260507093806 | 11 | 340 | 9.7 | 19.3 | 0.00 | 0.36 | 0.36 | 89 | 1009.0 |
| 20260507093306 | 11 | 350 | 9.7 | 19.3 | 0.00 | 0.36 | 0.36 | 89 | 1008.8 |
| 20260507092807 | 11 | 336 | 9.7 | 19.3 | 0.00 | 0.36 | 0.36 | 89 | 1008.8 |
| 20260507091806 | 11 | 350 | 14.5 | 24.1 | 0.00 | 0.36 | 0.36 | 89 | 1008.7 |
| 20260507090307 | 11 | 343 | 11.3 | 25.7 | 0.00 | 0.36 | 0.36 | 89 | 1008.8 |
| 20260507084807 | 11 | 343 | 14.5 | 25.7 | 0.00 | 0.36 | 0.36 | 90 | 1008.3 |
| 20260507084306 | 11 | 341 | 22.5 | 33.8 | 0.00 | 0.36 | 0.36 | 90 | 1008.2 |
| 20260507083806 | 11 | 355 | 17.7 | 27.4 | 0.00 | 0.36 | 0.36 | 90 | 1008.5 |
| 20260507083306 | 11 | 347 | 17.7 | 25.7 | 0.00 | 0.36 | 0.36 | 90 | 1008.7 |
| 20260507081306 | 11 | 357 | 17.7 | 29.0 | 0.18 | 0.36 | 0.36 | 90 | 1008.3 |
| 20260507080806 | 12 | 337 | 19.3 | 29.0 | 0.18 | 0.36 | 0.36 | 90 | 1008.4 |
| 20260507080307 | 12 | 348 | 14.5 | 25.7 | 0.20 | 0.36 | 0.36 | 90 | 1008.5 |
| 20260507073807 | 12 | 330 | 12.9 | 24.1 | 0.36 | 0.36 | 0.36 | 90 | 1008.3 |
| 20260507072806 | 12 | 346 | 11.3 | 19.3 | 0.36 | 0.36 | 0.36 | 90 | 1008.1 |
| 20260507072307 | 12 | 334 | 9.7 | 24.1 | 0.33 | 0.33 | 0.33 | 89 | 1008.8 |
| 20260507071807 | 13 | 350 | 14.5 | 20.9 | 0.30 | 0.30 | 0.30 | 89 | 1008.2 |
| 20260507071306 | 13 | 333 | 12.9 | 22.5 | 0.18 | 0.18 | 0.18 | 88 | 1008.2 |
| 20260507070306 | 13 | 331 | 16.1 | 25.7 | 0.15 | 0.15 | 0.15 | 88 | 1007.9 |
| 20260507064306 | 13 | 352 | 19.3 | 29.0 | 0.05 | 0.05 | 0.05 | 84 | 1007.7 |
| 20260507063807 | 14 | 344 | 20.9 | 32.2 | 0.00 | 0.00 | 0.00 | 83 | 1007.4 |
| 20260507063307 | 15 | 345 | 19.3 | 29.0 | 0.00 | 0.00 | 0.00 | 83 | 1007.6 |
| 20260507062806 | 15 | 359 | 17.7 | 29.0 | 0.00 | 0.00 | 0.00 | 83 | 1007.5 |
| 20260507061807 | 15 | 349 | 16.1 | 24.1 | 0.00 | 0.00 | 0.00 | 87 | 1007.3 |
| 20260507055807 | 15 | 275 | 4.8 | 19.3 | 0.00 | 0.00 | 0.00 | 93 | 1007.3 |
| 20260507055306 | 15 | 245 | 4.8 | 4.8 | 0.00 | 0.00 | 0.00 | 93 | 1007.1 |
| 20260507054306 | 15 | 240 | 3.2 | 11.3 | 0.00 | 0.00 | 0.00 | 93 | 1006.8 |
| 20260507053806 | 15 | 220 | 6.4 | 11.3 | 0.00 | 0.00 | 0.00 | 93 | 1007.2 |
| 20260507053306 | 15 | 236 | 8.0 | 9.7 | 0.00 | 0.00 | 0.00 | 93 | 1007.1 |
| 20260507052307 | 14 | 204 | 3.2 | 4.8 | 0.00 | 0.00 | 0.00 | 93 | 1007.1 |
| 20260507050806 | 15 | 219 | 3.2 | 4.8 | 0.00 | 0.00 | 0.00 | 93 | 1007.1 |
| 20260507045806 | 14 | 212 | 3.2 | 4.8 | 0.00 | 0.00 | 0.00 | 93 | 1007.3 |
| 20260507045307 | 13 | 207 | 3.2 | 4.8 | 0.00 | 0.00 | 0.00 | 93 | 1007.3 |
| 20260507044807 | 13 | 207 | 3.2 | 4.8 | 0.00 | 0.00 | 0.00 | 93 | 1007.3 |
| 20260507043807 | 13 | 194 | 8.0 | 16.1 | 0.00 | 0.00 | 0.00 | 92 | 1007.4 |
| 20260507041806 | 15 | 193 | 3.2 | 8.0 | 0.00 | 0.00 | 0.00 | 93 | 1007.6 |
| 20260507040307 | 15 | 203 | 6.4 | 12.9 | 0.00 | 0.00 | 0.00 | 93 | 1007.5 |
| 20260507035806 | 15 | 227 | 6.4 | 12.9 | 0.00 | 0.00 | 0.00 | 93 | 1007.4 |
| 20260507035306 | 15 | 235 | 6.4 | 14.5 | 0.00 | 0.00 | 0.00 | 93 | 1007.3 |
| 20260507034807 | 15 | 224 | 4.8 | 8.0 | 0.00 | 0.00 | 0.00 | 93 | 1007.3 |
| 20260507034306 | 14 | 228 | 3.2 | 8.0 | 0.00 | 0.00 | 0.00 | 93 | 1007.1 |
| 20260507033806 | 13 | 224 | 6.4 | 9.7 | 0.00 | 0.00 | 0.00 | 94 | 1007.1 |
| 20260507033306 | 13 | 238 | 4.8 | 9.7 | 0.00 | 0.00 | 0.00 | 93 | 1007.3 |
| 20260507032806 | 13 | 202 | 4.8 | 9.7 | 0.00 | 0.00 | 0.00 | 93 | 1007.2 |
| 20260507032307 | 12 | 200 | 6.4 | 9.7 | 0.00 | 0.00 | 0.00 | 93 | 1007.3 |
| 20260507025806 | 12 | 201 | 8.0 | 14.5 | 0.00 | 0.00 | 0.00 | 92 | 1007.7 |
| 20260507024806 | 12 | 196 | 6.4 | 14.5 | 0.00 | 0.00 | 0.00 | 92 | 1007.8 |
| 20260507023806 | 12 | 206 | 6.4 | 11.3 | 0.00 | 0.00 | 0.00 | 92 | 1008.2 |
| 20260507022806 | 12 | 190 | 9.7 | 19.3 | 0.00 | 0.00 | 0.00 | 91 | 1007.8 |
| 20260507021306 | 13 | 192 | 9.7 | 14.5 | 0.00 | 0.00 | 0.00 | 90 | 1008.0 |
| 20260507020806 | 14 | 186 | 4.8 | 9.7 | 0.00 | 0.00 | 0.00 | 90 | 1008.1 |
| 20260507020306 | 14 | 192 | 3.2 | 4.8 | 0.00 | 0.00 | 0.00 | 91 | 1008.2 |
| 20260507014806 | 13 | 188 | 4.8 | 4.8 | 0.00 | 0.00 | 0.00 | 91 | 1008.3 |
| 20260507013306 | 13 | 197 | 8.0 | 19.3 | 0.00 | 0.00 | 0.00 | 91 | 1008.5 |
| 20260507010306 | 13 | 201 | 6.4 | 14.5 | 0.00 | 0.00 | 0.00 | 91 | 1008.1 |
| 20260507005806 | 13 | 204 | 9.7 | 19.3 | 0.00 | 0.00 | 0.00 | 91 | 1008.0 |
| 20260507005308 | 13 | 197 | 8.0 | 19.3 | 0.00 | 0.00 | 0.00 | 90 | 1007.8 |
| 20260507004806 | 13 | 190 | 8.0 | 16.1 | 0.00 | 0.00 | 0.00 | 90 | 1007.7 |
| 20260507003805 | 14 | 188 | 4.8 | 11.3 | 0.00 | 0.00 | 0.00 | 91 | 1007.7 |
| 20260507003306 | 14 | 199 | 9.7 | 19.3 | 0.00 | 0.00 | 0.00 | 90 | 1007.7 |
| 20260507002806 | 14 | 192 | 4.8 | 9.7 | 0.00 | 0.00 | 0.00 | 91 | 1007.5 |
| 20260507002306 | 14 | 200 | 8.0 | 16.1 | 0.00 | 0.00 | 0.00 | 91 | 1007.5 |
| 20260507001806 | 14 | 205 | 9.7 | 16.1 | 0.00 | 0.00 | 0.00 | 91 | 1007.6 |
| 20260507001305 | 13 | 197 | 11.3 | 22.5 | 0.00 | 0.00 | 0.00 | 91 | 1007.7 |
| 20260507000806 | 13 | 194 | 11.3 | 19.3 | 0.00 | 0.00 | 0.00 | 91 | 1007.7 |
| 20260507000306 | 13 | 194 | 14.5 | 25.7 | 0.00 | 0.00 | 0.00 | 91 | 1007.6 |
| 20260506235806 | 13 | 199 | 14.5 | 32.2 | 0.00 | 0.00 | 0.00 | 91 | 1007.6 |
| 20260506234306 | 14 | 199 | 14.5 | 27.4 | 0.00 | 0.00 | 0.00 | 90 | 1007.7 |
| 20260506233806 | 14 | 197 | 14.5 | 19.3 | 0.00 | 0.00 | 0.00 | 90 | 1007.6 |
| 20260506233306 | 14 | 185 | 8.0 | 20.9 | 0.00 | 0.00 | 0.00 | 90 | 1007.6 |
| 20260506232307 | 14 | 201 | 9.7 | 19.3 | 0.00 | 0.00 | 0.00 | 90 | 1007.8 |
| 20260506230807 | 14 | 203 | 16.1 | 27.4 | 0.00 | 0.00 | 0.00 | 88 | 1007.2 |
| 20260506225806 | 15 | 214 | 11.3 | 20.9 | 0.00 | 0.00 | 0.00 | 89 | 1007.3 |
| 20260506223806 | 15 | 205 | 16.1 | 24.1 | 0.00 | 0.00 | 0.00 | 88 | 1007.3 |
| 20260506223306 | 14 | 204 | 12.9 | 25.7 | 0.00 | 0.00 | 0.00 | 89 | 1007.4 |
| 20260506221806 | 14 | 211 | 14.5 | 27.4 | 0.00 | 0.00 | 0.00 | 89 | 1007.4 |
| 20260506220805 | 14 | 205 | 14.5 | 29.0 | 0.00 | 0.00 | 0.00 | 90 | 1007.4 |
| 20260506220306 | 14 | 189 | 19.3 | 32.2 | 0.00 | 0.00 | 0.00 | 90 | 1007.3 |
| 20260506215806 | 13 | 198 | 19.3 | 32.2 | 0.00 | 0.00 | 0.00 | 90 | 1007.2 |
| 20260506214806 | 13 | 199 | 16.1 | 33.8 | 0.00 | 0.00 | 0.00 | 89 | 1007.1 |
| 20260506214306 | 14 | 194 | 14.5 | 25.7 | 0.00 | 0.00 | 0.00 | 89 | 1007.2 |
| 20260506213806 | 14 | 187 | 16.1 | 29.0 | 0.00 | 0.00 | 0.00 | 88 | 1007.1 |
| 20260506213305 | 14 | 198 | 20.9 | 32.2 | 0.00 | 0.00 | 0.00 | 88 | 1007.0 |
| 20260506212807 | 15 | 191 | 19.3 | 29.0 | 0.00 | 0.00 | 0.00 | 87 | 1007.1 |
| 20260506212307 | 15 | 202 | 19.3 | 35.4 | 0.00 | 0.00 | 0.00 | 87 | 1007.0 |
| 20260506211305 | 15 | 209 | 20.9 | 35.4 | 0.00 | 0.00 | 0.00 | 87 | 1007.1 |
| 20260506210305 | 15 | 195 | 20.9 | 35.4 | 0.00 | 0.00 | 0.00 | 87 | 1007.0 |
| 20260506205806 | 15 | 190 | 19.3 | 35.4 | 0.00 | 0.00 | 0.00 | 87 | 1006.9 |
| 20260506204806 | 15 | 202 | 20.9 | 37.0 | 0.00 | 0.00 | 0.00 | 87 | 1006.9 |
| 20260506204306 | 15 | 204 | 19.3 | 33.8 | 0.00 | 0.00 | 0.00 | 87 | 1006.8 |
| 20260506203806 | 15 | 195 | 19.3 | 29.0 | 0.00 | 0.00 | 0.00 | 86 | 1006.8 |
| 20260506203306 | 15 | 197 | 24.1 | 37.0 | 0.00 | 0.00 | 0.00 | 86 | 1006.8 |
| 20260506202306 | 16 | 213 | 17.7 | 38.6 | 0.00 | 0.00 | 0.00 | 86 | 1006.9 |
| 20260506201306 | 15 | 186 | 14.5 | 27.4 | 0.00 | 0.00 | 0.00 | 87 | 1006.9 |
| 20260506200806 | 15 | 181 | 14.5 | 29.0 | 0.00 | 0.00 | 0.00 | 85 | 1007.0 |
| 20260506195306 | 16 | 216 | 16.1 | 27.4 | 0.00 | 0.00 | 0.00 | 86 | 1007.4 |
| 20260506194807 | 16 | 215 | 16.1 | 27.4 | 0.00 | 0.00 | 0.00 | 86 | 1007.5 |
| 20260506194306 | 16 | 210 | 14.5 | 24.1 | 0.00 | 0.00 | 0.00 | 87 | 1007.5 |
| 20260506193807 | 15 | 223 | 16.1 | 25.7 | 0.00 | 0.00 | 0.00 | 88 | 1007.5 |
| 20260506192306 | 15 | 206 | 17.7 | 35.4 | 0.00 | 0.00 | 0.00 | 89 | 1007.5 |
| 20260506191806 | 15 | 205 | 19.3 | 32.2 | 0.00 | 0.00 | 0.00 | 90 | 1007.5 |
| 20260506191306 | 15 | 202 | 19.3 | 32.2 | 0.00 | 0.00 | 0.00 | 90 | 1007.6 |
| 20260506184805 | 15 | 214 | 14.5 | 25.7 | 0.00 | 0.00 | 0.00 | 91 | 1008.0 |
| 20260506182805 | 14 | 210 | 20.9 | 33.8 | 0.00 | 0.00 | 0.00 | 90 | 1008.2 |
| 20260506182307 | 14 | 201 | 19.3 | 32.2 | 0.00 | 0.00 | 0.00 | 89 | 1008.2 |
| 20260506175806 | 14 | 204 | 22.5 | 35.4 | 0.00 | 0.00 | 0.00 | 89 | 1008.4 |
| 20260506175306 | 14 | 218 | 22.5 | 33.8 | 0.00 | 0.00 | 0.00 | 89 | 1008.6 |
| 20260506174805 | 14 | 191 | 19.3 | 38.6 | 0.00 | 0.00 | 0.00 | 89 | 1008.8 |
| 20260506174305 | 14 | 203 | 22.5 | 40.2 | 0.00 | 0.00 | 0.00 | 89 | 1008.8 |
| 20260506172307 | 15 | 202 | 22.5 | 35.4 | 0.00 | 0.00 | 0.00 | 86 | 1008.8 |
| 20260506170806 | 15 | 205 | 16.1 | 40.2 | 0.00 | 0.00 | 0.00 | 87 | 1009.0 |
| 20260506170305 | 14 | 199 | 20.9 | 35.4 | 0.00 | 0.00 | 0.00 | 88 | 1009.1 |
| 20260506165306 | 14 | 195 | 22.5 | 32.2 | 0.00 | 0.00 | 0.00 | 87 | 1009.4 |
| 20260506164305 | 15 | 199 | 20.9 | 37.0 | 0.00 | 0.00 | 0.00 | 87 | 1009.6 |
| 20260506163306 | 15 | 193 | 22.5 | 35.4 | 0.00 | 0.00 | 0.00 | 88 | 1009.7 |
| 20260506162307 | 14 | 209 | 17.7 | 35.4 | 0.00 | 0.00 | 0.00 | 89 | 1009.9 |
| 20260506155805 | 13 | 201 | 20.9 | 32.2 | 0.00 | 0.00 | 0.00 | 89 | 1010.3 |
| 20260506154807 | 13 | 196 | 16.1 | 29.0 | 0.00 | 0.00 | 0.00 | 88 | 1010.1 |
| 20260506154306 | 13 | 198 | 12.9 | 25.7 | 0.00 | 0.00 | 0.00 | 88 | 1010.3 |
| 20260506153805 | 13 | 200 | 19.3 | 35.4 | 0.00 | 0.00 | 0.00 | 88 | 1010.3 |
| 20260506152806 | 14 | 202 | 16.1 | 35.4 | 0.00 | 0.00 | 0.00 | 87 | 1010.3 |
| 20260506152306 | 14 | 203 | 19.3 | 33.8 | 0.00 | 0.00 | 0.00 | 87 | 1010.3 |
| 20260506151806 | 14 | 205 | 19.3 | 35.4 | 0.00 | 0.00 | 0.00 | 88 | 1010.4 |
| 20260506145306 | 14 | 197 | 20.9 | 37.0 | 0.00 | 0.00 | 0.00 | 86 | 1010.6 |
| 20260506144805 | 15 | 199 | 19.3 | 35.4 | 0.00 | 0.00 | 0.00 | 85 | 1010.5 |
| 20260506142306 | 14 | 211 | 19.3 | 33.8 | 0.00 | 0.00 | 0.00 | 87 | 1010.7 |
| 20260506141805 | 14 | 210 | 19.3 | 27.4 | 0.00 | 0.00 | 0.00 | 87 | 1010.6 |
| 20260506141305 | 14 | 193 | 19.3 | 32.2 | 0.00 | 0.00 | 0.00 | 87 | 1010.5 |
| 20260506140805 | 14 | 191 | 19.3 | 35.4 | 0.00 | 0.00 | 0.00 | 87 | 1010.5 |
| 20260506135806 | 15 | 189 | 20.9 | 33.8 | 0.00 | 0.00 | 0.00 | 86 | 1010.5 |
| 20260506134805 | 15 | 212 | 20.9 | 37.0 | 0.00 | 0.00 | 0.00 | 86 | 1010.6 |
| 20260506134306 | 15 | 212 | 20.9 | 35.4 | 0.00 | 0.00 | 0.00 | 86 | 1010.8 |
| 20260506133805 | 15 | 190 | 25.7 | 38.6 | 0.00 | 0.00 | 0.00 | 86 | 1010.7 |
| 20260506132307 | 15 | 202 | 25.7 | 41.8 | 0.00 | 0.00 | 0.00 | 85 | 1010.9 |
| 20260506130805 | 15 | 202 | 27.4 | 46.7 | 0.00 | 0.00 | 0.00 | 86 | 1010.8 |
| 20260506125306 | 15 | 203 | 20.9 | 40.2 | 0.00 | 0.00 | 0.00 | 86 | 1010.9 |
| 20260506124305 | 15 | 214 | 20.9 | 38.6 | 0.00 | 0.00 | 0.00 | 87 | 1010.8 |
| 20260506123805 | 15 | 187 | 19.3 | 35.4 | 0.00 | 0.00 | 0.00 | 86 | 1010.7 |
| 20260506123306 | 15 | 206 | 22.5 | 32.2 | 0.00 | 0.00 | 0.00 | 86 | 1010.7 |
| 20260506122306 | 15 | 194 | 20.9 | 38.6 | 0.00 | 0.00 | 0.00 | 88 | 1010.8 |
| 20260506121805 | 15 | 205 | 22.5 | 40.2 | 0.00 | 0.00 | 0.00 | 88 | 1010.7 |
| 20260506120807 | 15 | 204 | 20.9 | 33.8 | 0.00 | 0.00 | 0.00 | 88 | 1010.6 |
| 20260506120305 | 15 | 217 | 20.9 | 37.0 | 0.00 | 0.00 | 0.00 | 88 | 1010.7 |
| 20260506114805 | 14 | 213 | 20.9 | 45.1 | 0.00 | 0.00 | 0.00 | 89 | 1010.9 |
| 20260506114305 | 14 | 195 | 22.5 | 45.1 | 0.00 | 0.00 | 0.00 | 89 | 1010.9 |
| 20260506113806 | 14 | 211 | 22.5 | 41.8 | 0.00 | 0.00 | 0.00 | 89 | 1010.9 |
| 20260506113306 | 14 | 206 | 19.3 | 35.4 | 0.00 | 0.00 | 0.00 | 90 | 1010.9 |
| 20260506112805 | 14 | 205 | 22.5 | 41.8 | 0.00 | 0.00 | 0.00 | 90 | 1010.9 |
| 20260506112306 | 14 | 208 | 24.1 | 41.8 | 0.00 | 0.00 | 0.00 | 90 | 1010.9 |
| 20260506111805 | 13 | 200 | 19.3 | 40.2 | 0.00 | 0.00 | 0.00 | 91 | 1010.9 |
| 20260506110805 | 13 | 208 | 20.9 | 32.2 | 0.00 | 0.00 | 0.00 | 91 | 1010.8 |